Wing River, Minnesota
Current Conditions -  °F | °C
As of 2:13 AM on Thursday 29 Jan 2015 (Local Time) from KSAZ Reporting Station
Haze Haze  
Wind Chill: 16°   Ceiling: 800
Heat Index: 28°   Visibility: 5mi
Dew Point: 27°   Wind: 18mph
Humidity: 93%   Direction: 300°WNW
Pressure: 29.98"   Gusts: 23mph
Location:  46.4671°N, 94.8901°W
Report Text: KSAZ 290813Z AUTO 30016G20KT 5SM BR OVC008 M02/M03 A2998 RMK AO2
Loading
Personal Weather Stations






























Interactive Weather Map New forecast layout! Learn more

10-Day Weather Forecast

Advertisements
Track Severe Weather on mobile